sensor_id;sensor_type;location;lat;lon;timestamp;temperature;humidity
5978;DHT22;3015;51.390;12.256;2022-09-09T00:00:32;12.50;1.00
5978;DHT22;3015;51.390;12.256;2022-09-09T00:03:07;12.50;3.70
5978;DHT22;3015;51.390;12.256;2022-09-09T00:05:46;12.40;3.60
5978;DHT22;3015;51.390;12.256;2022-09-09T00:08:20;12.40;1.00
5978;DHT22;3015;51.390;12.256;2022-09-09T00:10:54;12.40;3.20
5978;DHT22;3015;51.390;12.256;2022-09-09T00:13:50;12.40;99.90
5978;DHT22;3015;51.390;12.256;2022-09-09T00:16:24;12.40;88.30
5978;DHT22;3015;51.390;12.256;2022-09-09T00:19:05;12.30;95.30
5978;DHT22;3015;51.390;12.256;2022-09-09T00:21:36;12.30;99.90
5978;DHT22;3015;51.390;12.256;2022-09-09T00:24:26;12.20;99.90
5978;DHT22;3015;51.390;12.256;2022-09-09T00:26:57;12.20;99.90
5978;DHT22;3015;51.390;12.256;2022-09-09T00:29:44;12.20;99.90
5978;DHT22;3015;51.390;12.256;2022-09-09T00:32:17;12.10;99.90
5978;DHT22;3015;51.390;12.256;2022-09-09T00:37:53;12.10;1.00
5978;DHT22;3015;51.390;12.256;2022-09-09T00:40:33;12.20;1.00
5978;DHT22;3015;51.390;12.256;2022-09-09T00:43:26;12.30;1.00
5978;DHT22;3015;51.390;12.256;2022-09-09T00:54:47;12.70;1.00
5978;DHT22;3015;51.390;12.256;2022-09-09T00:57:32;12.70;1.00
5978;DHT22;3015;51.390;12.256;2022-09-09T01:00:00;12.80;99.90
5978;DHT22;3015;51.390;12.256;2022-09-09T01:02:39;12.70;99.90
5978;DHT22;3015;51.390;12.256;2022-09-09T01:05:30;12.80;1.00
5978;DHT22;3015;51.390;12.256;2022-09-09T01:08:01;12.70;99.90
5978;DHT22;3015;51.390;12.256;2022-09-09T01:10:51;12.60;99.90
5978;DHT22;3015;51.390;12.256;2022-09-09T01:13:32;12.50;99.90
5978;DHT22;3015;51.390;12.256;2022-09-09T01:16:04;12.50;99.90
5978;DHT22;3015;51.390;12.256;2022-09-09T01:18:44;12.40;99.90
5978;DHT22;3015;51.390;12.256;2022-09-09T01:26:46;12.30;99.90
5978;DHT22;3015;51.390;12.256;2022-09-09T01:29:14;12.20;99.90
5978;DHT22;3015;51.390;12.256;2022-09-09T01:31:42;12.20;99.90
5978;DHT22;3015;51.390;12.256;2022-09-09T01:34:16;12.10;99.90
5978;DHT22;3015;51.390;12.256;2022-09-09T01:36:57;12.10;99.90
5978;DHT22;3015;51.390;12.256;2022-09-09T01:39:23;12.10;99.90
5978;DHT22;3015;51.390;12.256;2022-09-09T01:41:49;12.00;99.90
5978;DHT22;3015;51.390;12.256;2022-09-09T01:44:14;12.00;99.90
5978;DHT22;3015;51.390;12.256;2022-09-09T01:46:40;11.90;99.90
5978;DHT22;3015;51.390;12.256;2022-09-09T01:49:07;11.90;99.90
5978;DHT22;3015;51.390;12.256;2022-09-09T01:51:34;11.80;99.90
5978;DHT22;3015;51.390;12.256;2022-09-09T01:54:01;11.80;99.90
5978;DHT22;3015;51.390;12.256;2022-09-09T01:59:30;11.80;1.00
5978;DHT22;3015;51.390;12.256;2022-09-09T02:02:16;11.90;99.90
5978;DHT22;3015;51.390;12.256;2022-09-09T02:04:49;11.90;80.20
5978;DHT22;3015;51.390;12.256;2022-09-09T02:07:43;11.80;1.00
5978;DHT22;3015;51.390;12.256;2022-09-09T02:10:20;11.70;1.00
5978;DHT22;3015;51.390;12.256;2022-09-09T02:13:08;11.70;99.90
5978;DHT22;3015;51.390;12.256;2022-09-09T02:16:08;11.60;99.90
5978;DHT22;3015;51.390;12.256;2022-09-09T02:18:56;11.60;99.90
5978;DHT22;3015;51.390;12.256;2022-09-09T02:21:23;11.50;99.90
5978;DHT22;3015;51.390;12.256;2022-09-09T02:23:50;11.50;99.90
5978;DHT22;3015;51.390;12.256;2022-09-09T02:26:19;11.40;99.90
5978;DHT22;3015;51.390;12.256;2022-09-09T02:28:50;11.40;99.90
5978;DHT22;3015;51.390;12.256;2022-09-09T02:31:18;11.40;1.00
5978;DHT22;3015;51.390;12.256;2022-09-09T02:33:52;11.50;1.00
5978;DHT22;3015;51.390;12.256;2022-09-09T02:36:19;11.40;1.00
5978;DHT22;3015;51.390;12.256;2022-09-09T02:38:47;11.40;99.90
5978;DHT22;3015;51.390;12.256;2022-09-09T02:41:24;11.30;99.90
5978;DHT22;3015;51.390;12.256;2022-09-09T02:43:51;11.30;1.00
5978;DHT22;3015;51.390;12.256;2022-09-09T02:52:08;11.20;1.00
5978;DHT22;3015;51.390;12.256;2022-09-09T02:54:35;11.20;1.00
5978;DHT22;3015;51.390;12.256;2022-09-09T02:57:17;11.20;1.00
5978;DHT22;3015;51.390;12.256;2022-09-09T02:59:45;11.20;1.00
5978;DHT22;3015;51.390;12.256;2022-09-09T03:02:11;11.20;1.00
5978;DHT22;3015;51.390;12.256;2022-09-09T03:04:38;11.20;1.00
5978;DHT22;3015;51.390;12.256;2022-09-09T03:07:04;11.20;1.00
5978;DHT22;3015;51.390;12.256;2022-09-09T03:09:30;11.20;1.00
5978;DHT22;3015;51.390;12.256;2022-09-09T03:11:58;11.30;1.00
5978;DHT22;3015;51.390;12.256;2022-09-09T03:14:24;11.40;1.00
5978;DHT22;3015;51.390;12.256;2022-09-09T03:16:54;11.40;6.50
5978;DHT22;3015;51.390;12.256;2022-09-09T03:19:20;11.40;1.00
5978;DHT22;3015;51.390;12.256;2022-09-09T03:21:47;11.40;1.00
5978;DHT22;3015;51.390;12.256;2022-09-09T03:24:13;11.50;8.70
5978;DHT22;3015;51.390;12.256;2022-09-09T03:26:40;11.50;37.40
5978;DHT22;3015;51.390;12.256;2022-09-09T03:29:06;11.50;1.00
5978;DHT22;3015;51.390;12.256;2022-09-09T03:31:35;11.50;1.00
5978;DHT22;3015;51.390;12.256;2022-09-09T03:34:02;11.50;3.10
5978;DHT22;3015;51.390;12.256;2022-09-09T03:36:28;11.60;99.90
5978;DHT22;3015;51.390;12.256;2022-09-09T03:38:54;11.80;99.90
5978;DHT22;3015;51.390;12.256;2022-09-09T03:41:20;11.90;99.90
5978;DHT22;3015;51.390;12.256;2022-09-09T03:43:52;12.00;99.90
5978;DHT22;3015;51.390;12.256;2022-09-09T03:46:22;12.10;99.90
5978;DHT22;3015;51.390;12.256;2022-09-09T03:48:47;12.10;99.90
5978;DHT22;3015;51.390;12.256;2022-09-09T03:51:13;12.10;99.90
5978;DHT22;3015;51.390;12.256;2022-09-09T03:53:39;12.10;99.90
5978;DHT22;3015;51.390;12.256;2022-09-09T03:56:06;12.10;99.90
5978;DHT22;3015;51.390;12.256;2022-09-09T03:58:33;12.00;68.30
5978;DHT22;3015;51.390;12.256;2022-09-09T04:01:01;12.00;85.90
5978;DHT22;3015;51.390;12.256;2022-09-09T04:03:28;11.90;76.00
5978;DHT22;3015;51.390;12.256;2022-09-09T04:05:55;11.90;98.30
5978;DHT22;3015;51.390;12.256;2022-09-09T04:08:22;11.90;99.90
5978;DHT22;3015;51.390;12.256;2022-09-09T04:10:49;11.90;99.90
5978;DHT22;3015;51.390;12.256;2022-09-09T04:13:15;11.80;99.90
5978;DHT22;3015;51.390;12.256;2022-09-09T04:15:43;11.80;99.90
5978;DHT22;3015;51.390;12.256;2022-09-09T04:18:10;11.80;99.90
5978;DHT22;3015;51.390;12.256;2022-09-09T04:20:37;11.90;99.90
5978;DHT22;3015;51.390;12.256;2022-09-09T04:23:03;11.80;99.90
5978;DHT22;3015;51.390;12.256;2022-09-09T04:25:29;11.80;99.90
5978;DHT22;3015;51.390;12.256;2022-09-09T04:27:55;11.80;99.90
5978;DHT22;3015;51.390;12.256;2022-09-09T04:30:21;12.00;99.90
5978;DHT22;3015;51.390;12.256;2022-09-09T04:32:47;12.00;99.90
5978;DHT22;3015;51.390;12.256;2022-09-09T04:35:13;12.10;99.90
5978;DHT22;3015;51.390;12.256;2022-09-09T04:37:38;12.20;99.90
5978;DHT22;3015;51.390;12.256;2022-09-09T04:40:05;12.20;99.90
5978;DHT22;3015;51.390;12.256;2022-09-09T04:42:37;12.30;99.90
5978;DHT22;3015;51.390;12.256;2022-09-09T04:45:04;12.30;99.90
5978;DHT22;3015;51.390;12.256;2022-09-09T04:47:30;12.30;99.90
5978;DHT22;3015;51.390;12.256;2022-09-09T04:49:56;12.40;99.90
5978;DHT22;3015;51.390;12.256;2022-09-09T04:52:22;12.40;99.90
5978;DHT22;3015;51.390;12.256;2022-09-09T04:54:47;12.50;99.90
5978;DHT22;3015;51.390;12.256;2022-09-09T04:57:13;12.50;99.90
5978;DHT22;3015;51.390;12.256;2022-09-09T04:59:39;12.40;99.90
5978;DHT22;3015;51.390;12.256;2022-09-09T05:02:05;12.40;99.90
5978;DHT22;3015;51.390;12.256;2022-09-09T05:04:31;12.40;99.90
5978;DHT22;3015;51.390;12.256;2022-09-09T05:06:57;12.50;99.90
5978;DHT22;3015;51.390;12.256;2022-09-09T05:09:22;12.70;99.90
5978;DHT22;3015;51.390;12.256;2022-09-09T05:11:48;12.80;99.90
5978;DHT22;3015;51.390;12.256;2022-09-09T05:14:14;12.90;99.90
5978;DHT22;3015;51.390;12.256;2022-09-09T05:16:40;13.00;99.90
5978;DHT22;3015;51.390;12.256;2022-09-09T05:19:06;13.10;99.90
5978;DHT22;3015;51.390;12.256;2022-09-09T05:21:33;13.20;99.90
5978;DHT22;3015;51.390;12.256;2022-09-09T05:23:59;13.30;99.90
5978;DHT22;3015;51.390;12.256;2022-09-09T05:26:26;13.40;99.90
5978;DHT22;3015;51.390;12.256;2022-09-09T05:28:52;13.60;99.90
5978;DHT22;3015;51.390;12.256;2022-09-09T05:31:19;13.60;99.90
5978;DHT22;3015;51.390;12.256;2022-09-09T05:33:45;13.70;99.90
5978;DHT22;3015;51.390;12.256;2022-09-09T05:36:17;13.80;99.90
5978;DHT22;3015;51.390;12.256;2022-09-09T05:38:44;13.80;99.90
5978;DHT22;3015;51.390;12.256;2022-09-09T05:41:11;13.90;99.90
5978;DHT22;3015;51.390;12.256;2022-09-09T05:43:37;14.00;99.90
5978;DHT22;3015;51.390;12.256;2022-09-09T05:46:08;14.10;99.90
5978;DHT22;3015;51.390;12.256;2022-09-09T05:48:40;14.10;85.90
5978;DHT22;3015;51.390;12.256;2022-09-09T05:51:09;14.20;99.90
5978;DHT22;3015;51.390;12.256;2022-09-09T05:53:35;14.30;99.90
5978;DHT22;3015;51.390;12.256;2022-09-09T05:56:05;14.40;97.70
5978;DHT22;3015;51.390;12.256;2022-09-09T05:58:32;14.50;80.20
5978;DHT22;3015;51.390;12.256;2022-09-09T06:03:34;14.80;1.00
5978;DHT22;3015;51.390;12.256;2022-09-09T06:06:02;14.90;1.00
5978;DHT22;3015;51.390;12.256;2022-09-09T06:08:31;15.10;1.00
5978;DHT22;3015;51.390;12.256;2022-09-09T06:11:04;15.20;99.90
5978;DHT22;3015;51.390;12.256;2022-09-09T06:13:31;15.30;1.00
5978;DHT22;3015;51.390;12.256;2022-09-09T06:15:57;15.50;1.00
5978;DHT22;3015;51.390;12.256;2022-09-09T06:18:24;15.60;1.00
5978;DHT22;3015;51.390;12.256;2022-09-09T06:20:59;15.80;1.00
5978;DHT22;3015;51.390;12.256;2022-09-09T06:23:32;15.90;99.90
5978;DHT22;3015;51.390;12.256;2022-09-09T06:26:12;16.00;99.90
5978;DHT22;3015;51.390;12.256;2022-09-09T06:28:38;16.10;99.90
5978;DHT22;3015;51.390;12.256;2022-09-09T06:31:07;16.10;1.00
5978;DHT22;3015;51.390;12.256;2022-09-09T06:33:40;16.30;1.00
5978;DHT22;3015;51.390;12.256;2022-09-09T06:36:27;16.50;99.90
5978;DHT22;3015;51.390;12.256;2022-09-09T06:38:53;16.60;99.90
5978;DHT22;3015;51.390;12.256;2022-09-09T06:41:20;16.70;99.90
5978;DHT22;3015;51.390;12.256;2022-09-09T06:43:47;16.80;1.00
5978;DHT22;3015;51.390;12.256;2022-09-09T06:46:18;16.80;99.90
5978;DHT22;3015;51.390;12.256;2022-09-09T06:48:44;17.00;1.00
5978;DHT22;3015;51.390;12.256;2022-09-09T06:51:12;17.00;99.90
5978;DHT22;3015;51.390;12.256;2022-09-09T06:53:40;17.00;1.00
5978;DHT22;3015;51.390;12.256;2022-09-09T06:56:26;17.20;1.00
5978;DHT22;3015;51.390;12.256;2022-09-09T06:58:54;17.30;84.30
5978;DHT22;3015;51.390;12.256;2022-09-09T07:01:30;17.50;1.00
5978;DHT22;3015;51.390;12.256;2022-09-09T07:03:58;18.00;1.00
5978;DHT22;3015;51.390;12.256;2022-09-09T07:06:32;18.30;1.00
5978;DHT22;3015;51.390;12.256;2022-09-09T07:09:00;18.90;1.00
5978;DHT22;3015;51.390;12.256;2022-09-09T07:11:28;19.50;1.00
5978;DHT22;3015;51.390;12.256;2022-09-09T07:13:56;20.40;99.90
5978;DHT22;3015;51.390;12.256;2022-09-09T07:16:22;21.50;99.90
5978;DHT22;3015;51.390;12.256;2022-09-09T07:18:50;22.30;99.90
5978;DHT22;3015;51.390;12.256;2022-09-09T07:21:16;22.90;99.90
5978;DHT22;3015;51.390;12.256;2022-09-09T07:23:42;23.80;99.90
5978;DHT22;3015;51.390;12.256;2022-09-09T07:26:17;24.40;99.90
5978;DHT22;3015;51.390;12.256;2022-09-09T07:28:44;25.20;99.90
5978;DHT22;3015;51.390;12.256;2022-09-09T07:31:15;26.10;99.90
5978;DHT22;3015;51.390;12.256;2022-09-09T07:33:42;26.80;99.90
5978;DHT22;3015;51.390;12.256;2022-09-09T07:36:38;27.20;99.90
5978;DHT22;3015;51.390;12.256;2022-09-09T07:39:10;27.50;99.90
5978;DHT22;3015;51.390;12.256;2022-09-09T07:41:38;26.90;99.90
5978;DHT22;3015;51.390;12.256;2022-09-09T07:44:07;27.00;99.90
5978;DHT22;3015;51.390;12.256;2022-09-09T07:46:34;26.80;99.90
5978;DHT22;3015;51.390;12.256;2022-09-09T07:49:01;27.00;99.90
5978;DHT22;3015;51.390;12.256;2022-09-09T07:51:33;26.40;99.90
5978;DHT22;3015;51.390;12.256;2022-09-09T07:54:01;25.90;99.90
5978;DHT22;3015;51.390;12.256;2022-09-09T07:56:28;26.40;99.90
5978;DHT22;3015;51.390;12.256;2022-09-09T07:58:55;26.70;99.90
5978;DHT22;3015;51.390;12.256;2022-09-09T08:01:26;27.00;99.90
5978;DHT22;3015;51.390;12.256;2022-09-09T08:04:01;26.20;99.90
5978;DHT22;3015;51.390;12.256;2022-09-09T08:06:29;25.70;99.90
5978;DHT22;3015;51.390;12.256;2022-09-09T08:08:55;26.40;99.90
5978;DHT22;3015;51.390;12.256;2022-09-09T08:11:23;26.00;99.90
5978;DHT22;3015;51.390;12.256;2022-09-09T08:13:50;25.80;99.90
5978;DHT22;3015;51.390;12.256;2022-09-09T08:16:19;25.80;99.90
5978;DHT22;3015;51.390;12.256;2022-09-09T08:18:47;25.00;99.90
5978;DHT22;3015;51.390;12.256;2022-09-09T08:21:16;24.00;99.90
5978;DHT22;3015;51.390;12.256;2022-09-09T08:23:44;23.40;99.90
5978;DHT22;3015;51.390;12.256;2022-09-09T08:26:13;22.70;99.90
5978;DHT22;3015;51.390;12.256;2022-09-09T08:28:40;22.20;99.90
5978;DHT22;3015;51.390;12.256;2022-09-09T08:31:15;22.60;99.90
5978;DHT22;3015;51.390;12.256;2022-09-09T08:33:42;24.90;99.90
5978;DHT22;3015;51.390;12.256;2022-09-09T08:36:12;26.90;99.90
5978;DHT22;3015;51.390;12.256;2022-09-09T08:38:41;28.70;99.90
5978;DHT22;3015;51.390;12.256;2022-09-09T08:43:45;31.20;99.90
5978;DHT22;3015;51.390;12.256;2022-09-09T08:49:00;31.90;99.90
5978;DHT22;3015;51.390;12.256;2022-09-09T08:51:30;32.10;99.90
5978;DHT22;3015;51.390;12.256;2022-09-09T08:53:57;32.60;99.90
5978;DHT22;3015;51.390;12.256;2022-09-09T08:56:26;32.80;99.90
5978;DHT22;3015;51.390;12.256;2022-09-09T08:58:54;33.00;99.90
5978;DHT22;3015;51.390;12.256;2022-09-09T09:01:27;33.30;99.90
5978;DHT22;3015;51.390;12.256;2022-09-09T09:04:10;33.40;99.90
5978;DHT22;3015;51.390;12.256;2022-09-09T09:09:53;34.50;99.90
5978;DHT22;3015;51.390;12.256;2022-09-09T09:12:27;33.90;99.90
5978;DHT22;3015;51.390;12.256;2022-09-09T09:14:54;33.80;99.90
5978;DHT22;3015;51.390;12.256;2022-09-09T09:17:24;33.20;99.90
5978;DHT22;3015;51.390;12.256;2022-09-09T09:19:50;33.20;99.90
5978;DHT22;3015;51.390;12.256;2022-09-09T09:27:40;31.70;99.90
5978;DHT22;3015;51.390;12.256;2022-09-09T09:30:18;30.30;99.90
5978;DHT22;3015;51.390;12.256;2022-09-09T09:32:56;28.80;99.90
5978;DHT22;3015;51.390;12.256;2022-09-09T09:35:23;28.10;99.90
5978;DHT22;3015;51.390;12.256;2022-09-09T09:37:49;28.00;99.90
5978;DHT22;3015;51.390;12.256;2022-09-09T09:40:18;27.90;99.90
5978;DHT22;3015;51.390;12.256;2022-09-09T09:43:03;27.50;99.90
5978;DHT22;3015;51.390;12.256;2022-09-09T09:45:41;27.50;99.90
5978;DHT22;3015;51.390;12.256;2022-09-09T09:48:11;27.80;99.90
5978;DHT22;3015;51.390;12.256;2022-09-09T09:51:03;28.60;99.90
5978;DHT22;3015;51.390;12.256;2022-09-09T09:53:34;29.50;99.90
5978;DHT22;3015;51.390;12.256;2022-09-09T09:56:07;31.00;99.90
5978;DHT22;3015;51.390;12.256;2022-09-09T10:01:02;33.30;99.90
5978;DHT22;3015;51.390;12.256;2022-09-09T10:03:33;33.10;99.90
5978;DHT22;3015;51.390;12.256;2022-09-09T10:06:03;32.70;99.90
5978;DHT22;3015;51.390;12.256;2022-09-09T10:08:33;31.40;99.90
5978;DHT22;3015;51.390;12.256;2022-09-09T10:19:33;32.60;99.90
5978;DHT22;3015;51.390;12.256;2022-09-09T10:27:52;32.50;99.90
5978;DHT22;3015;51.390;12.256;2022-09-09T10:33:37;32.20;99.90
5978;DHT22;3015;51.390;12.256;2022-09-09T10:36:12;32.00;99.90
5978;DHT22;3015;51.390;12.256;2022-09-09T10:38:39;32.10;99.90
5978;DHT22;3015;51.390;12.256;2022-09-09T10:41:16;32.00;99.90
5978;DHT22;3015;51.390;12.256;2022-09-09T11:00:06;29.70;99.90
5978;DHT22;3015;51.390;12.256;2022-09-09T11:02:40;29.60;99.90
5978;DHT22;3015;51.390;12.256;2022-09-09T11:05:22;29.20;99.90
5978;DHT22;3015;51.390;12.256;2022-09-09T11:16:38;29.70;99.90
5978;DHT22;3015;51.390;12.256;2022-09-09T11:19:26;29.30;99.90
5978;DHT22;3015;51.390;12.256;2022-09-09T11:21:55;29.80;99.90
5978;DHT22;3015;51.390;12.256;2022-09-09T11:29:43;27.30;99.90
5978;DHT22;3015;51.390;12.256;2022-09-09T11:32:36;27.00;99.90
5978;DHT22;3015;51.390;12.256;2022-09-09T11:40:35;28.10;99.90
5978;DHT22;3015;51.390;12.256;2022-09-09T11:43:09;30.40;99.90
5978;DHT22;3015;51.390;12.256;2022-09-09T11:45:35;31.20;99.90
5978;DHT22;3015;51.390;12.256;2022-09-09T11:48:03;31.30;99.90
5978;DHT22;3015;51.390;12.256;2022-09-09T11:50:36;31.50;99.90
5978;DHT22;3015;51.390;12.256;2022-09-09T11:53:18;31.70;99.90
5978;DHT22;3015;51.390;12.256;2022-09-09T11:55:46;32.10;99.90
5978;DHT22;3015;51.390;12.256;2022-09-09T12:00:42;31.00;99.90
5978;DHT22;3015;51.390;12.256;2022-09-09T12:03:47;29.70;99.90
5978;DHT22;3015;51.390;12.256;2022-09-09T12:06:19;28.20;99.90
5978;DHT22;3015;51.390;12.256;2022-09-09T12:08:51;27.00;99.90
5978;DHT22;3015;51.390;12.256;2022-09-09T12:11:27;26.80;99.90
5978;DHT22;3015;51.390;12.256;2022-09-09T12:13:56;28.00;99.90
5978;DHT22;3015;51.390;12.256;2022-09-09T12:16:42;29.30;99.90
5978;DHT22;3015;51.390;12.256;2022-09-09T12:19:17;30.10;99.90
5978;DHT22;3015;51.390;12.256;2022-09-09T12:24:40;31.20;99.90
5978;DHT22;3015;51.390;12.256;2022-09-09T12:27:17;31.20;99.90
5978;DHT22;3015;51.390;12.256;2022-09-09T12:32:23;31.30;99.90
5978;DHT22;3015;51.390;12.256;2022-09-09T12:34:59;32.50;99.90
5978;DHT22;3015;51.390;12.256;2022-09-09T12:37:34;32.50;99.90
5978;DHT22;3015;51.390;12.256;2022-09-09T12:42:28;29.80;99.90
5978;DHT22;3015;51.390;12.256;2022-09-09T12:44:58;30.30;99.90
5978;DHT22;3015;51.390;12.256;2022-09-09T12:47:43;31.20;99.90
5978;DHT22;3015;51.390;12.256;2022-09-09T12:50:20;31.40;99.90
5978;DHT22;3015;51.390;12.256;2022-09-09T12:52:49;30.80;99.90
5978;DHT22;3015;51.390;12.256;2022-09-09T12:55:21;30.90;99.90
5978;DHT22;3015;51.390;12.256;2022-09-09T12:57:51;31.70;99.90
5978;DHT22;3015;51.390;12.256;2022-09-09T13:00:22;32.20;99.90
5978;DHT22;3015;51.390;12.256;2022-09-09T13:05:33;31.80;99.90
5978;DHT22;3015;51.390;12.256;2022-09-09T13:08:04;31.60;99.90
5978;DHT22;3015;51.390;12.256;2022-09-09T13:10:34;31.70;99.90
5978;DHT22;3015;51.390;12.256;2022-09-09T13:13:01;31.30;99.90
5978;DHT22;3015;51.390;12.256;2022-09-09T13:15:28;30.90;99.90
5978;DHT22;3015;51.390;12.256;2022-09-09T13:17:57;31.00;99.90
5978;DHT22;3015;51.390;12.256;2022-09-09T13:20:24;31.10;99.90
5978;DHT22;3015;51.390;12.256;2022-09-09T13:22:52;31.30;99.90
5978;DHT22;3015;51.390;12.256;2022-09-09T13:25:21;30.80;99.90
5978;DHT22;3015;51.390;12.256;2022-09-09T13:28:04;31.00;99.90
5978;DHT22;3015;51.390;12.256;2022-09-09T13:30:35;30.70;99.90
5978;DHT22;3015;51.390;12.256;2022-09-09T13:35:35;30.30;99.90
5978;DHT22;3015;51.390;12.256;2022-09-09T13:38:13;29.30;99.90
5978;DHT22;3015;51.390;12.256;2022-09-09T13:40:39;28.50;99.90
5978;DHT22;3015;51.390;12.256;2022-09-09T13:43:05;27.70;99.90
5978;DHT22;3015;51.390;12.256;2022-09-09T13:45:31;27.20;99.90
5978;DHT22;3015;51.390;12.256;2022-09-09T13:47:56;26.80;99.90
5978;DHT22;3015;51.390;12.256;2022-09-09T13:50:27;26.60;99.90
5978;DHT22;3015;51.390;12.256;2022-09-09T13:52:55;26.40;99.90
5978;DHT22;3015;51.390;12.256;2022-09-09T13:55:24;26.10;99.90
5978;DHT22;3015;51.390;12.256;2022-09-09T13:57:58;26.10;99.90
5978;DHT22;3015;51.390;12.256;2022-09-09T14:00:26;26.20;99.90
5978;DHT22;3015;51.390;12.256;2022-09-09T14:02:52;26.40;99.90
5978;DHT22;3015;51.390;12.256;2022-09-09T14:05:18;26.40;99.90
5978;DHT22;3015;51.390;12.256;2022-09-09T14:07:44;26.50;99.90
5978;DHT22;3015;51.390;12.256;2022-09-09T14:10:11;26.40;99.90
5978;DHT22;3015;51.390;12.256;2022-09-09T14:12:37;26.20;99.90
5978;DHT22;3015;51.390;12.256;2022-09-09T14:15:04;26.00;99.90
5978;DHT22;3015;51.390;12.256;2022-09-09T14:17:30;25.80;99.90
5978;DHT22;3015;51.390;12.256;2022-09-09T14:19:57;25.40;99.90
5978;DHT22;3015;51.390;12.256;2022-09-09T14:22:23;25.00;99.90
5978;DHT22;3015;51.390;12.256;2022-09-09T14:24:49;24.80;99.90
5978;DHT22;3015;51.390;12.256;2022-09-09T14:27:16;24.70;99.90
5978;DHT22;3015;51.390;12.256;2022-09-09T14:29:41;24.60;99.90
5978;DHT22;3015;51.390;12.256;2022-09-09T14:32:08;24.70;99.90
5978;DHT22;3015;51.390;12.256;2022-09-09T14:34:34;24.70;99.90
5978;DHT22;3015;51.390;12.256;2022-09-09T14:37:00;24.60;99.90
5978;DHT22;3015;51.390;12.256;2022-09-09T14:39:26;24.50;99.90
5978;DHT22;3015;51.390;12.256;2022-09-09T14:41:52;24.30;99.90
5978;DHT22;3015;51.390;12.256;2022-09-09T14:44:18;24.10;99.90
5978;DHT22;3015;51.390;12.256;2022-09-09T14:46:44;23.90;99.90
5978;DHT22;3015;51.390;12.256;2022-09-09T14:49:09;23.80;99.90
5978;DHT22;3015;51.390;12.256;2022-09-09T14:51:38;23.90;99.90
5978;DHT22;3015;51.390;12.256;2022-09-09T14:54:04;24.10;99.90
5978;DHT22;3015;51.390;12.256;2022-09-09T14:56:32;24.60;99.90
5978;DHT22;3015;51.390;12.256;2022-09-09T14:59:00;25.60;99.90
5978;DHT22;3015;51.390;12.256;2022-09-09T15:01:27;26.40;99.90
5978;DHT22;3015;51.390;12.256;2022-09-09T15:03:55;27.10;99.90
5978;DHT22;3015;51.390;12.256;2022-09-09T15:06:21;27.70;99.90
5978;DHT22;3015;51.390;12.256;2022-09-09T15:08:50;27.80;99.90
5978;DHT22;3015;51.390;12.256;2022-09-09T15:11:16;27.50;99.90
5978;DHT22;3015;51.390;12.256;2022-09-09T15:13:43;27.20;99.90
5978;DHT22;3015;51.390;12.256;2022-09-09T15:16:11;27.00;99.90
5978;DHT22;3015;51.390;12.256;2022-09-09T15:18:37;26.80;99.90
5978;DHT22;3015;51.390;12.256;2022-09-09T15:21:12;26.60;99.90
5978;DHT22;3015;51.390;12.256;2022-09-09T15:23:38;26.40;99.90
5978;DHT22;3015;51.390;12.256;2022-09-09T15:26:05;26.50;99.90
5978;DHT22;3015;51.390;12.256;2022-09-09T15:28:35;26.60;99.90
5978;DHT22;3015;51.390;12.256;2022-09-09T15:31:10;26.90;99.90
5978;DHT22;3015;51.390;12.256;2022-09-09T15:33:36;26.60;99.90
5978;DHT22;3015;51.390;12.256;2022-09-09T15:36:13;26.40;99.90
5978;DHT22;3015;51.390;12.256;2022-09-09T15:38:40;26.20;99.90
5978;DHT22;3015;51.390;12.256;2022-09-09T15:41:06;25.80;99.90
5978;DHT22;3015;51.390;12.256;2022-09-09T15:43:31;25.60;99.90
5978;DHT22;3015;51.390;12.256;2022-09-09T15:46:05;25.30;99.90
5978;DHT22;3015;51.390;12.256;2022-09-09T15:48:33;25.10;99.90
5978;DHT22;3015;51.390;12.256;2022-09-09T15:51:03;24.80;99.90
5978;DHT22;3015;51.390;12.256;2022-09-09T15:53:29;24.60;99.90
5978;DHT22;3015;51.390;12.256;2022-09-09T15:55:57;24.50;99.90
5978;DHT22;3015;51.390;12.256;2022-09-09T15:58:23;24.20;99.90
5978;DHT22;3015;51.390;12.256;2022-09-09T16:00:49;24.10;99.90
5978;DHT22;3015;51.390;12.256;2022-09-09T16:03:14;23.80;99.90
5978;DHT22;3015;51.390;12.256;2022-09-09T16:05:40;23.60;99.90
5978;DHT22;3015;51.390;12.256;2022-09-09T16:08:06;23.40;99.90
5978;DHT22;3015;51.390;12.256;2022-09-09T16:10:32;23.20;99.90
5978;DHT22;3015;51.390;12.256;2022-09-09T16:12:57;23.10;99.90
5978;DHT22;3015;51.390;12.256;2022-09-09T16:15:24;23.00;99.90
5978;DHT22;3015;51.390;12.256;2022-09-09T16:17:53;22.70;99.90
5978;DHT22;3015;51.390;12.256;2022-09-09T16:20:19;22.60;99.90
5978;DHT22;3015;51.390;12.256;2022-09-09T16:22:44;22.50;99.90
5978;DHT22;3015;51.390;12.256;2022-09-09T16:25:10;22.40;99.90
5978;DHT22;3015;51.390;12.256;2022-09-09T16:27:36;22.30;99.90
5978;DHT22;3015;51.390;12.256;2022-09-09T16:30:01;22.30;99.90
5978;DHT22;3015;51.390;12.256;2022-09-09T16:32:27;22.20;99.90
5978;DHT22;3015;51.390;12.256;2022-09-09T16:34:53;22.10;99.90
5978;DHT22;3015;51.390;12.256;2022-09-09T16:37:18;22.10;99.90
5978;DHT22;3015;51.390;12.256;2022-09-09T16:39:44;21.90;99.90
5978;DHT22;3015;51.390;12.256;2022-09-09T16:42:10;21.80;99.90
5978;DHT22;3015;51.390;12.256;2022-09-09T16:44:36;21.70;99.90
5978;DHT22;3015;51.390;12.256;2022-09-09T16:47:01;21.60;99.90
5978;DHT22;3015;51.390;12.256;2022-09-09T16:49:27;21.50;99.90
5978;DHT22;3015;51.390;12.256;2022-09-09T16:51:53;21.30;99.90
5978;DHT22;3015;51.390;12.256;2022-09-09T16:54:19;21.30;99.90
5978;DHT22;3015;51.390;12.256;2022-09-09T16:56:47;21.20;99.90
5978;DHT22;3015;51.390;12.256;2022-09-09T16:59:18;21.00;99.90
5978;DHT22;3015;51.390;12.256;2022-09-09T17:01:46;21.00;99.90
5978;DHT22;3015;51.390;12.256;2022-09-09T17:04:20;20.90;99.90
5978;DHT22;3015;51.390;12.256;2022-09-09T17:06:47;20.90;99.90
5978;DHT22;3015;51.390;12.256;2022-09-09T17:09:15;20.80;99.90
5978;DHT22;3015;51.390;12.256;2022-09-09T17:11:41;20.70;99.90
5978;DHT22;3015;51.390;12.256;2022-09-09T17:14:09;20.60;99.90
5978;DHT22;3015;51.390;12.256;2022-09-09T17:16:36;20.50;99.90
5978;DHT22;3015;51.390;12.256;2022-09-09T17:19:04;20.50;99.90
5978;DHT22;3015;51.390;12.256;2022-09-09T17:21:32;20.40;99.90
5978;DHT22;3015;51.390;12.256;2022-09-09T17:23:58;20.20;99.90
5978;DHT22;3015;51.390;12.256;2022-09-09T17:26:27;20.20;99.90
5978;DHT22;3015;51.390;12.256;2022-09-09T17:28:54;20.20;99.90
5978;DHT22;3015;51.390;12.256;2022-09-09T17:31:21;20.10;99.90
5978;DHT22;3015;51.390;12.256;2022-09-09T17:33:48;20.00;99.90
5978;DHT22;3015;51.390;12.256;2022-09-09T17:36:32;19.90;99.90
5978;DHT22;3015;51.390;12.256;2022-09-09T17:38:59;19.80;99.90
5978;DHT22;3015;51.390;12.256;2022-09-09T17:41:39;19.70;99.90
5978;DHT22;3015;51.390;12.256;2022-09-09T17:44:06;19.50;99.90
5978;DHT22;3015;51.390;12.256;2022-09-09T17:46:34;19.40;99.90
5978;DHT22;3015;51.390;12.256;2022-09-09T17:49:06;19.40;99.90
5978;DHT22;3015;51.390;12.256;2022-09-09T17:51:33;19.40;99.90
5978;DHT22;3015;51.390;12.256;2022-09-09T17:54:01;19.20;99.90
5978;DHT22;3015;51.390;12.256;2022-09-09T17:56:30;19.00;99.90
5978;DHT22;3015;51.390;12.256;2022-09-09T17:58:57;18.80;99.90